• Join FlightAware (Why Join?)
  • Login
  • US Flag 
04:24AM EST


 

Airport Tracker/Info


-or-


 

Live Flight TrackerFlight Track Log ✈ USC105 ✈ 10-Oct-2013 ✈ KYIP - KLCK

Flight Track Log - Related Links

Times and Time Zones

All times are in EDT time to prevent confusion due to time zone crossing. See the USC105 flight status page for this flight to view local times or setup timezone preferences in your user account.

Time Position Orientation Groundspeed Altitude Reporting Facility
EDT Latitude Longitude Course Direction KTS MPH feet Rate Location/Type
07:01AM 42.2064 -83.5758 228° Southwest 116 133 3,300  Level Cleveland Center
07:02AM 42.1964 -83.5889 224° Southwest 114 131 4,000 1,574 Climbing Cleveland Center
07:02AM 42.1847 -83.6119 236° Southwest 123 142 4,900 1,082 Climbing Cleveland Center
07:03AM 42.1756 -83.6281 232° Southwest 120 138 5,100 333 Climbing Cleveland Center
07:03AM 42.1622 -83.6539 235° Southwest 185 213 5,200 97 Climbing Cleveland Center
07:04AM 42.1394 -83.6700 208° Southwest 164 189 5,200  Level Cleveland Center
07:04AM 42.1122 -83.6775 192° South 190 219 5,200  Level Cleveland Center
07:05AM 42.0858 -83.6792 183° South 185 213 5,200 -100 Level Cleveland Center
07:05AM 42.0592 -83.6839 187° South 192 221 5,100  Descending Cleveland Center
07:06AM 41.9679 -83.4612 169° South  Level Estimated
07:06AM 42.0333 -83.6858 183° South 190 219 5,200  Level Cleveland Center
07:06AM 42.0000 -83.6922 188° South 194 223 5,200 484 Level Cleveland Center
07:07AM 41.9803 -83.6928 181° South 191 220 5,700 1,277 Climbing Cleveland Center
07:08AM 41.9389 -83.6956 183° South 154 177 7,200 1,561 Climbing Cleveland Center
07:09AM 41.8908 -83.7014 185° South 144 166 8,900 927 Climbing Cleveland Center
07:10AM 41.8456 -83.6844 164° South 173 199 9,100 146 Climbing Cleveland Center
07:11AM 41.7928 -83.6650 165° South 193 222 9,200  Climbing Cleveland Center
07:12AM 41.7403 -83.6450 164° South 197 227 9,100  Descending Cleveland Center
07:13AM 41.6867 -83.6244 164° South 198 228 9,200  Climbing Cleveland Center
07:14AM 41.6339 -83.6106 169° South 195 224 9,100 -98 Descending Cleveland Center
07:15AM 41.5792 -83.5947 168° South 200 230 9,000 -49 Descending Cleveland Center
07:16AM 41.5169 -83.5742 166° South 192 221 9,000  Level Cleveland Center
07:17AM 41.4636 -83.5586 168° South 196 226 9,000 49 Level Cleveland Center
07:18AM 41.4103 -83.5417 167° South 197 227 9,100  Climbing Cleveland Center
07:19AM 41.3578 -83.5258 167° South 195 224 9,000 -48 Descending Cleveland Center
07:20AM 41.3053 -83.5108 168° South 194 223 9,000 49 Level Cleveland Center
07:21AM 41.2528 -83.4950 167° South 194 223 9,100  Climbing Cleveland Center
07:22AM 41.2006 -83.4794 167° South 192 221 9,000 -49 Descending Cleveland Center
07:23AM 41.1358 -83.4594 167° South 198 228 9,000  Level Cleveland Center
07:24AM 41.0886 -83.4447 167° South 196 226 9,000  Level Cleveland Center
07:25AM 41.0336 -83.4281 167° South 198 228 9,000  Level Cleveland Center
07:26AM 40.9817 -83.4128 167° South 195 224 9,000  Level Cleveland Center
07:27AM 40.9178 -83.3922 166° South 195 224 9,000 48 Level Cleveland Center
07:28AM 40.8667 -83.3703 162° South 192 221 9,100 98 Climbing Indianapolis Center
07:29AM 40.8147 -83.3478 162° South 194 223 9,200 49 Climbing Indianapolis Center
07:30AM 40.7636 -83.3267 163° South 196 226 9,200  Level Indianapolis Center
07:31AM 40.7125 -83.3044 162° South 195 224 9,200 -49 Level Indianapolis Center
07:32AM 40.6606 -83.2817 162° South 195 224 9,100  Descending Indianapolis Center
07:33AM 40.6081 -83.2583 161° South 198 228 9,200  Climbing Indianapolis Center
07:34AM 40.5567 -83.2375 163° South 194 223 9,100 -49 Descending Indianapolis Center
07:35AM 40.4944 -83.2125 163° South 196 226 9,100 -81 Level Indianapolis Center
07:36AM 40.4819 -83.2100 171° South 195 224 9,000 -82 Descending Indianapolis Center
07:37AM 40.4294 -83.1875 162° South 195 224 9,000 55 Level Indianapolis Center
07:37AM 40.3906 -83.1681 159° South 196 226 9,100  Climbing Indianapolis Center
07:38AM 40.3789 -83.1656 171° South 196 226 9,000  Descending Indianapolis Center
07:39AM 40.3264 -83.1433 162° South 197 227 9,100  Climbing Indianapolis Center
07:40AM 40.2864 -83.1250 161° South 198 228 9,000  Descending Indianapolis Center
07:40AM 40.2742 -83.1208 165° South 196 226 9,100 -295 Climbing Indianapolis Center
07:41AM 40.2339 -83.1031 161° South 198 228 8,700 -590 Descending Indianapolis Center
07:41AM 40.2194 -83.0983 166° South 197 227 8,500 -677 Descending Indianapolis Center
07:42AM 40.1825 -83.0808 160° South 195 224 8,000 -689 Descending Indianapolis Center
07:42AM 40.1669 -83.0761 167° South 198 228 7,800 -484 Descending Indianapolis Center
07:43AM 40.1303 -83.0600 161° South 196 226 7,500 -500 Descending Indianapolis Center
07:43AM 40.1167 -83.0542 162° South 194 223 7,300 -689 Descending Indianapolis Center
07:44AM 40.0803 -83.0386 162° South 189 217 6,800 -689 Descending Indianapolis Center
07:44AM 40.0658 -83.0350 169° South 186 214 6,600 -971 Descending Indianapolis Center
07:45AM 40.0153 -83.0131 162° South 194 223 5,700 -983 Descending Indianapolis Center
07:46AM 39.9661 -82.9989 168° South 194 223 4,700 -1,200 Descending Indianapolis Center
07:46AM 39.9603 -82.9961 160° South 193 222 4,500 -1,258 Descending Indianapolis Center
07:47AM 39.9256 -82.9514 135° Southeast 195 224 3,400 -1,279 Descending Indianapolis Center
07:47AM 39.9208 -82.9489 158° South 197 227 3,200 -1,258 Descending Indianapolis Center
07:48AM 39.8811 -82.9081 142° Southeast 200 230 2,100 -1,180 Descending Indianapolis Center
07:48AM 39.8767 -82.9036 142° Southeast 204 235 2,000 -787 Descending Indianapolis Center
07:49AM 39.8383 -82.8983 174° South 202 232 1,300 -885 Descending Indianapolis Center
07:49AM 39.8347 -82.9022 220° Southwest 170 196 1,100 -387 Descending Indianapolis Center
07:50AM 39.8119 -82.9278 221° Southwest 180 207 900 -203 Descending Indianapolis Center